createdAt,value
2024-02-11T00:01:05.327Z,150920.25
2024-02-11T00:03:06.920Z,150891.22
2024-02-11T00:05:08.997Z,150796.66
2024-02-11T00:07:10.891Z,150775.22
2024-02-11T00:09:12.781Z,150771.44
2024-02-11T00:11:15.057Z,150727.31
2024-02-11T00:13:16.844Z,150792.88
2024-02-11T00:15:18.438Z,150789.06
2024-02-11T00:17:20.093Z,150751.28
2024-02-11T00:19:21.731Z,150761.31
2024-02-11T00:21:23.605Z,150781.50
2024-02-11T00:23:25.191Z,150723.53
2024-02-11T00:25:26.724Z,150753.78
2024-02-11T00:27:28.503Z,150773.97
2024-02-11T00:29:30.042Z,150790.34
2024-02-11T00:31:31.631Z,150801.72
2024-02-11T00:33:33.420Z,150797.94
2024-02-11T00:35:35.130Z,150795.41
2024-02-11T00:37:36.688Z,150775.22
2024-02-11T00:39:39.088Z,150780.28
2024-02-11T00:41:41.806Z,150799.19
2024-02-11T00:43:43.381Z,150800.44
2024-02-11T00:45:45.183Z,150780.28
2024-02-11T00:47:46.828Z,150797.94
2024-02-11T00:49:48.423Z,150784.03
2024-02-11T00:51:50.080Z,150752.53
2024-02-11T00:53:51.778Z,150744.94
2024-02-11T00:55:53.842Z,150719.78
2024-02-11T00:57:55.386Z,150727.31
2024-02-11T00:59:57.043Z,150760.13
2024-02-11T01:01:58.809Z,150743.69
2024-02-11T01:04:00.432Z,150734.88
2024-02-11T01:06:02.182Z,150776.50
2024-02-11T01:08:04.047Z,150733.63
2024-02-11T01:10:10.043Z,150779.03
2024-02-11T01:12:11.598Z,150755.06
2024-02-11T01:14:13.202Z,150790.34
2024-02-11T01:16:14.827Z,150776.50
2024-02-11T01:18:16.532Z,150813.03
2024-02-11T01:20:18.394Z,150789.06
2024-02-11T01:22:19.945Z,150773.97
2024-02-11T01:24:21.648Z,150790.34
2024-02-11T01:26:23.286Z,150734.88
2024-02-11T01:28:24.800Z,150791.59
2024-02-11T01:30:26.499Z,150726.06
2024-02-11T01:32:28.373Z,150757.59
2024-02-11T01:34:29.960Z,150765.13
2024-02-11T01:36:31.665Z,150756.31
2024-02-11T01:38:33.331Z,150738.69
2024-02-11T01:40:35.199Z,150748.75
2024-02-11T01:42:37.035Z,150681.94
2024-02-11T01:44:38.592Z,150688.25
2024-02-11T01:46:40.339Z,150699.56
2024-02-11T01:48:42.306Z,150713.47
2024-02-11T01:50:45.126Z,150695.81
2024-02-11T01:52:48.612Z,150676.94
2024-02-11T01:54:50.888Z,150748.75
2024-02-11T01:56:52.486Z,150713.47
2024-02-11T01:58:54.294Z,150719.78
2024-02-11T02:00:56.403Z,150731.09
2024-02-11T02:03:00.407Z,150733.63
2024-02-11T02:05:02.552Z,150731.09
2024-02-11T02:07:05.206Z,150756.31
2024-02-11T02:09:06.988Z,150664.28
2024-02-11T02:11:10.896Z,150716.00
2024-02-11T02:13:12.515Z,150659.25
2024-02-11T02:15:14.260Z,150693.28
2024-02-11T02:17:16.087Z,150647.91
2024-02-11T02:19:17.652Z,150668.09
2024-02-11T02:21:19.550Z,150727.31
2024-02-11T02:23:21.573Z,150665.56
2024-02-11T02:25:23.137Z,150716.00
2024-02-11T02:27:24.834Z,150707.16
2024-02-11T02:29:26.493Z,150646.66
2024-02-11T02:31:28.011Z,150692.03
2024-02-11T02:33:30.164Z,150610.13
2024-02-11T02:35:31.804Z,150674.41
2024-02-11T02:37:33.458Z,150686.97
2024-02-11T02:39:36.235Z,150646.66
2024-02-11T02:41:37.837Z,150615.19
2024-02-11T02:43:39.452Z,150642.88
2024-02-11T02:45:41.057Z,150656.75
2024-02-11T02:47:42.754Z,150651.72
2024-02-11T02:49:44.427Z,150659.25
2024-02-11T02:51:46.107Z,150635.34
2024-02-11T02:53:47.920Z,150646.66
2024-02-11T02:55:49.491Z,150631.56
2024-02-11T02:57:51.194Z,150654.22
2024-02-11T02:59:52.743Z,150642.88
2024-02-11T03:01:57.824Z,150606.34
2024-02-11T03:04:03.165Z,150650.44
2024-02-11T03:06:04.860Z,150652.97
2024-02-11T03:08:06.648Z,150652.97
2024-02-11T03:10:08.812Z,150584.91
2024-02-11T03:12:10.694Z,150592.50
2024-02-11T03:14:12.348Z,150649.19
2024-02-11T03:16:14.025Z,150637.88
2024-02-11T03:18:16.166Z,150663.03
2024-02-11T03:20:18.412Z,150671.88
2024-02-11T03:22:20.008Z,150600.03
2024-02-11T03:24:22.748Z,150626.50
2024-02-11T03:26:24.317Z,150646.66
2024-02-11T03:28:25.866Z,150632.81
2024-02-11T03:30:28.008Z,150697.09
2024-02-11T03:32:30.918Z,150654.22
2024-02-11T03:34:32.587Z,150629.03
2024-02-11T03:36:34.588Z,150637.88
2024-02-11T03:38:36.112Z,150695.81
2024-02-11T03:40:37.654Z,150596.28
2024-02-11T03:42:39.474Z,150621.44
2024-02-11T03:44:41.009Z,150685.72
2024-02-11T03:46:42.592Z,150568.56
2024-02-11T03:48:44.528Z,150634.06
2024-02-11T03:50:46.345Z,150588.72
2024-02-11T03:52:49.438Z,150655.50
2024-02-11T03:54:51.527Z,150635.34
2024-02-11T03:56:53.553Z,150655.50
2024-02-11T03:58:56.006Z,150636.59
2024-02-11T04:00:58.443Z,150632.81
2024-02-11T04:03:00.524Z,150694.56
2024-02-11T04:05:02.091Z,150642.88
2024-02-11T04:07:04.022Z,150647.91
2024-02-11T04:09:05.803Z,150652.97
2024-02-11T04:11:07.366Z,150642.88
2024-02-11T04:13:09.221Z,150674.41
2024-02-11T04:15:10.794Z,150718.53
2024-02-11T04:17:12.553Z,150714.72
2024-02-11T04:19:14.485Z,150659.25
2024-02-11T04:21:19.205Z,150663.03
2024-02-11T04:23:20.847Z,150645.41
2024-02-11T04:25:22.630Z,150753.78
2024-02-11T04:27:24.166Z,150658.03
2024-02-11T04:29:25.876Z,150685.72
2024-02-11T04:31:27.485Z,150652.97
2024-02-11T04:33:29.113Z,150650.44
2024-02-11T04:35:31.582Z,150678.19
2024-02-11T04:37:33.261Z,150681.94
2024-02-11T04:39:35.121Z,150675.66
2024-02-11T04:41:37.300Z,150584.91
2024-02-11T04:43:38.927Z,150650.44
2024-02-11T04:45:40.510Z,150719.78
2024-02-11T04:47:46.273Z,150694.56
2024-02-11T04:49:47.993Z,150637.88
2024-02-11T04:51:52.624Z,150607.59
2024-02-11T04:53:54.189Z,150613.91
2024-02-11T04:55:55.938Z,150598.75
2024-02-11T04:57:59.052Z,150631.56
2024-02-11T05:00:00.640Z,150602.56
2024-02-11T05:02:02.391Z,150642.88
2024-02-11T05:04:04.378Z,150680.66
2024-02-11T05:06:06.086Z,150636.59
2024-02-11T05:08:08.070Z,150639.06
2024-02-11T05:10:09.810Z,150689.50
2024-02-11T05:12:11.371Z,150669.34
2024-02-11T05:14:13.071Z,150656.75
2024-02-11T05:16:14.678Z,150639.06
2024-02-11T05:18:16.753Z,150615.19
2024-02-11T05:20:25.930Z,150625.22
2024-02-11T05:22:27.592Z,150622.72
2024-02-11T05:24:29.260Z,150606.34
2024-02-11T05:26:31.115Z,150631.56
2024-02-11T05:28:33.374Z,150519.41
2024-02-11T05:30:34.932Z,150601.28
2024-02-11T05:32:36.673Z,150615.19
2024-02-11T05:34:38.265Z,150583.66
2024-02-11T05:36:42.932Z,150568.56
2024-02-11T05:38:44.484Z,150555.97
2024-02-11T05:40:46.082Z,150564.75
2024-02-11T05:42:47.805Z,150595.03
2024-02-11T05:44:49.519Z,150634.06
2024-02-11T05:46:51.129Z,150584.91
2024-02-11T05:48:52.834Z,150627.75
2024-02-11T05:50:54.650Z,150593.75
2024-02-11T05:52:56.265Z,150557.19
2024-02-11T05:54:57.799Z,150605.06
2024-02-11T05:56:59.369Z,150616.44
2024-02-11T05:59:00.991Z,150623.97
2024-02-11T06:01:02.706Z,150632.81
2024-02-11T06:03:04.418Z,150615.19
2024-02-11T06:05:06.080Z,150603.81
2024-02-11T06:07:07.685Z,150645.41
2024-02-11T06:09:10.615Z,150615.19
2024-02-11T06:11:12.374Z,150645.41
2024-02-11T06:13:14.139Z,150644.13
2024-02-11T06:15:17.461Z,150625.22
2024-02-11T06:17:19.178Z,150618.91
2024-02-11T06:19:21.111Z,150649.19
2024-02-11T06:21:22.657Z,150632.81
2024-02-11T06:23:24.369Z,150654.22
2024-02-11T06:25:26.359Z,150635.34
2024-02-11T06:27:28.106Z,150686.97
2024-02-11T06:29:29.644Z,150669.34
2024-02-11T06:31:31.317Z,150655.50
2024-02-11T06:33:33.079Z,150592.50
2024-02-11T06:35:34.764Z,150658.03
2024-02-11T06:37:44.312Z,150606.34
2024-02-11T06:39:45.947Z,150666.81
2024-02-11T06:41:47.736Z,150673.13
2024-02-11T06:43:49.425Z,150630.28
2024-02-11T06:45:51.008Z,150644.13
2024-02-11T06:47:52.685Z,150602.56
2024-02-11T06:49:54.457Z,150549.66
2024-02-11T06:51:56.282Z,150612.66
2024-02-11T06:53:57.842Z,150671.88
2024-02-11T06:55:59.601Z,150658.03
2024-02-11T06:58:01.216Z,150680.66
2024-02-11T07:00:02.879Z,150666.81
2024-02-11T07:02:04.773Z,150640.34
2024-02-11T07:04:06.447Z,150644.13
2024-02-11T07:06:08.083Z,150654.22
2024-02-11T07:08:09.831Z,150668.09
2024-02-11T07:10:11.465Z,150658.03
2024-02-11T07:12:13.048Z,150665.56
2024-02-11T07:14:14.799Z,150637.88
2024-02-11T07:16:16.406Z,150649.19
2024-02-11T07:18:18.169Z,150656.75
2024-02-11T07:20:20.119Z,150642.88
2024-02-11T07:22:21.903Z,150668.09
2024-02-11T07:24:23.445Z,150668.09
2024-02-11T07:26:25.119Z,150651.72
2024-02-11T07:28:26.731Z,150710.94
2024-02-11T07:30:28.315Z,150642.88
2024-02-11T07:32:30.227Z,150641.59
2024-02-11T07:34:32.021Z,150729.84
2024-02-11T07:36:33.814Z,150751.28
2024-02-11T07:38:35.601Z,150674.41
2024-02-11T07:40:37.266Z,150616.44
2024-02-11T07:42:38.868Z,150586.19
2024-02-11T07:44:40.615Z,150654.22
2024-02-11T07:46:42.190Z,150685.72
2024-02-11T07:48:44.405Z,150679.41
2024-02-11T07:50:47.087Z,150684.47
2024-02-11T07:52:49.849Z,150673.13
2024-02-11T07:54:51.537Z,150708.41
2024-02-11T07:56:53.469Z,150694.56
2024-02-11T07:58:55.330Z,150768.91
2024-02-11T08:00:57.012Z,150746.22
2024-02-11T08:03:02.019Z,150688.25
2024-02-11T08:05:04.177Z,150762.59
2024-02-11T08:07:05.828Z,150748.75
2024-02-11T08:09:07.669Z,150799.19
2024-02-11T08:11:09.235Z,150781.50
2024-02-11T08:13:10.865Z,150810.50
2024-02-11T08:15:12.645Z,150780.28
2024-02-11T08:17:14.448Z,150753.78
2024-02-11T08:19:16.125Z,150799.19
2024-02-11T08:21:17.764Z,150796.66
2024-02-11T08:23:19.389Z,150844.53
2024-02-11T08:25:20.943Z,150806.72
2024-02-11T08:27:22.615Z,150837.00
2024-02-11T08:29:24.457Z,150855.91
2024-02-11T08:31:26.156Z,150831.94
2024-02-11T08:33:27.926Z,150855.91
2024-02-11T08:35:29.774Z,150863.44
2024-02-11T08:37:31.392Z,150834.47
2024-02-11T08:39:33.084Z,150871.03
2024-02-11T08:41:34.750Z,150823.09
2024-02-11T08:43:36.419Z,150854.66
2024-02-11T08:45:38.158Z,150869.78
2024-02-11T08:47:40.604Z,150839.53
2024-02-11T08:49:42.505Z,150837.00
2024-02-11T08:51:44.170Z,150850.88
2024-02-11T08:53:45.704Z,150834.47
2024-02-11T08:55:47.280Z,150792.88
2024-02-11T08:57:49.572Z,150777.75
2024-02-11T08:59:51.192Z,150765.13
2024-02-11T09:01:53.403Z,150703.34
2024-02-11T09:03:54.974Z,150768.91
2024-02-11T09:05:56.657Z,150795.41
2024-02-11T09:07:58.308Z,150753.78
2024-02-11T09:09:59.876Z,150818.09
2024-02-11T09:12:01.571Z,150843.28
2024-02-11T09:14:03.126Z,150789.06
2024-02-11T09:16:05.048Z,150794.13
2024-02-11T09:18:07.232Z,150742.41
2024-02-11T09:20:09.736Z,150811.78
2024-02-11T09:22:11.379Z,150766.38
2024-02-11T09:24:13.109Z,150840.78
2024-02-11T09:26:18.510Z,150823.09
2024-02-11T09:28:20.491Z,150844.53
2024-02-11T09:30:22.418Z,150877.34
2024-02-11T09:32:24.054Z,150964.38
2024-02-11T09:34:25.751Z,150965.66
2024-02-11T09:36:27.427Z,150990.84
2024-02-11T09:38:29.019Z,150924.03
2024-02-11T09:40:30.593Z,150946.69
2024-02-11T09:42:32.216Z,150917.72
2024-02-11T09:44:36.938Z,150937.88
2024-02-11T09:46:42.145Z,150873.56
2024-02-11T09:48:49.655Z,150864.72
2024-02-11T09:50:52.570Z,150884.88
2024-02-11T09:52:54.387Z,150867.25
2024-02-11T09:54:56.292Z,150907.59
2024-02-11T09:56:57.948Z,150906.31
2024-02-11T09:58:59.707Z,150925.25
2024-02-11T10:01:02.232Z,150949.22
2024-02-11T10:03:04.028Z,150935.34
2024-02-11T10:05:07.841Z,150964.38
2024-02-11T10:07:16.118Z,150910.13
2024-02-11T10:09:17.647Z,150893.75
2024-02-11T10:11:19.861Z,150927.78
2024-02-11T10:13:22.267Z,150961.84
2024-02-11T10:15:26.028Z,150931.56
2024-02-11T10:17:27.833Z,150947.94
2024-02-11T10:19:29.446Z,150936.63
2024-02-11T10:21:31.151Z,150998.44
2024-02-11T10:23:32.756Z,150931.56
2024-02-11T10:25:34.951Z,150953.00
2024-02-11T10:27:36.856Z,150915.19
2024-02-11T10:29:38.383Z,150922.75
2024-02-11T10:31:42.462Z,150932.84
2024-02-11T10:33:44.435Z,150951.75
2024-02-11T10:35:46.096Z,150968.13
2024-02-11T10:37:49.544Z,150976.97
2024-02-11T10:39:53.030Z,150973.19
2024-02-11T10:41:54.757Z,150900.06
2024-02-11T10:43:57.006Z,150889.94
2024-02-11T10:45:58.764Z,150895.00
2024-02-11T10:48:00.433Z,150886.16
2024-02-11T10:50:02.321Z,150829.41
2024-02-11T10:52:08.138Z,150886.16
2024-02-11T10:54:10.560Z,150887.41
2024-02-11T10:56:14.602Z,151006.03
2024-02-11T10:58:16.607Z,150922.75
2024-02-11T11:00:21.342Z,150913.91
2024-02-11T11:02:25.609Z,150910.13
2024-02-11T11:04:28.459Z,150920.25
2024-02-11T11:06:31.878Z,150893.75
2024-02-11T11:08:33.682Z,150941.69
2024-02-11T11:10:36.727Z,150975.72
2024-02-11T11:12:45.486Z,150978.25
2024-02-11T11:14:47.458Z,150969.41
2024-02-11T11:16:49.137Z,150960.59
2024-02-11T11:18:50.881Z,150997.16
2024-02-11T11:20:53.928Z,150998.44
2024-02-11T11:22:56.791Z,151011.03
2024-02-11T11:24:58.724Z,150998.44
2024-02-11T11:27:00.336Z,151035.00
2024-02-11T11:29:05.608Z,151013.56
2024-02-11T11:31:07.170Z,151002.22
2024-02-11T11:33:08.878Z,151016.09
2024-02-11T11:35:10.652Z,151031.22
2024-02-11T11:37:12.583Z,151099.41
2024-02-11T11:39:14.200Z,151061.50
2024-02-11T11:41:15.905Z,151074.13
2024-02-11T11:43:17.983Z,151098.16
2024-02-11T11:45:19.937Z,151079.19
2024-02-11T11:47:22.522Z,151046.38
2024-02-11T11:49:24.460Z,151144.84
2024-02-11T11:51:26.572Z,151047.66
2024-02-11T11:53:28.958Z,151062.78
2024-02-11T11:55:30.575Z,151117.06
2024-02-11T11:57:34.345Z,151130.94
2024-02-11T11:59:36.481Z,151138.53
2024-02-11T12:01:38.097Z,151070.31
2024-02-11T12:03:39.726Z,151094.34
2024-02-11T12:05:41.361Z,151151.13
2024-02-11T12:07:43.038Z,151110.75
2024-02-11T12:09:44.676Z,151107.00
2024-02-11T12:11:46.277Z,151187.78
2024-02-11T12:13:48.184Z,151165.03
2024-02-11T12:15:50.229Z,151211.75
2024-02-11T12:17:52.160Z,151202.91
2024-02-11T12:19:54.072Z,151202.91
2024-02-11T12:21:56.185Z,151187.78
2024-02-11T12:23:58.182Z,151162.53
2024-02-11T12:26:00.041Z,151165.03
2024-02-11T12:28:01.748Z,151195.31
2024-02-11T12:30:03.403Z,151152.41
2024-02-11T12:32:05.352Z,151166.31
2024-02-11T12:34:07.160Z,151199.09
2024-02-11T12:36:10.463Z,151207.97
2024-02-11T12:38:13.128Z,151216.78
2024-02-11T12:40:14.791Z,151207.97
2024-02-11T12:42:16.532Z,151197.84
2024-02-11T12:44:18.095Z,151252.16
2024-02-11T12:46:19.944Z,151231.97
2024-02-11T12:48:21.966Z,151235.72
2024-02-11T12:50:23.696Z,151200.38
2024-02-11T12:52:25.358Z,151269.81
2024-02-11T12:54:27.024Z,151191.53
2024-02-11T12:56:28.632Z,151229.44
2024-02-11T12:58:30.253Z,151183.97
2024-02-11T13:00:31.951Z,151209.22
2024-02-11T13:02:33.523Z,151330.44
2024-02-11T13:04:35.176Z,151266.03
2024-02-11T13:06:37.034Z,151255.91
2024-02-11T13:08:39.757Z,151264.75
2024-02-11T13:10:41.517Z,151298.84
2024-02-11T13:12:43.085Z,151243.28
2024-02-11T13:14:44.661Z,151345.56
2024-02-11T13:16:46.258Z,151370.84
2024-02-11T13:18:48.081Z,151315.25
2024-02-11T13:20:49.722Z,151327.91
2024-02-11T13:22:51.435Z,151306.44
2024-02-11T13:24:53.219Z,151326.63
2024-02-11T13:26:54.793Z,151321.56
2024-02-11T13:28:56.393Z,151349.38
2024-02-11T13:31:07.061Z,151332.97
2024-02-11T13:33:16.352Z,151403.66
2024-02-11T13:35:18.049Z,151402.41
2024-02-11T13:37:20.404Z,151316.50
2024-02-11T13:39:22.195Z,151331.69
2024-02-11T13:41:24.080Z,151339.25
2024-02-11T13:43:25.673Z,151295.03
2024-02-11T13:45:27.379Z,151332.97
2024-02-11T13:47:29.262Z,151339.25
2024-02-11T13:49:30.936Z,151345.56
2024-02-11T13:51:32.560Z,151291.28
2024-02-11T13:53:34.174Z,151359.44
2024-02-11T13:55:35.813Z,151383.47
2024-02-11T13:57:37.861Z,151300.09
2024-02-11T13:59:39.415Z,151345.56
2024-02-11T14:01:41.036Z,151359.44
2024-02-11T14:03:43.024Z,151326.63
2024-02-11T14:05:44.934Z,151288.75
2024-02-11T14:07:47.467Z,151312.75
2024-02-11T14:09:49.102Z,151353.16
2024-02-11T14:11:50.768Z,151384.72
2024-02-11T14:13:52.601Z,151397.34
2024-02-11T14:15:54.334Z,151428.94
2024-02-11T14:17:56.058Z,151410.00
2024-02-11T14:19:57.647Z,151384.72
2024-02-11T14:21:59.542Z,151392.31
2024-02-11T14:24:01.132Z,151341.78
2024-02-11T14:26:03.144Z,151315.25
2024-02-11T14:28:05.046Z,151339.25
2024-02-11T14:30:07.541Z,151404.94
2024-02-11T14:32:09.161Z,151399.88
2024-02-11T14:34:11.802Z,151360.72
2024-02-11T14:36:13.440Z,151372.09
2024-02-11T14:38:15.075Z,151346.84
2024-02-11T14:40:16.870Z,151378.38
2024-02-11T14:42:18.816Z,151319.03
2024-02-11T14:44:20.427Z,151351.91
2024-02-11T14:46:22.105Z,151369.56
2024-02-11T14:48:23.910Z,151407.47
2024-02-11T14:50:25.622Z,151404.94
2024-02-11T14:52:28.682Z,151367.03
2024-02-11T14:54:30.362Z,151382.19
2024-02-11T14:56:32.007Z,151430.19
2024-02-11T14:58:34.045Z,151388.53
2024-02-11T15:00:35.717Z,151407.47
2024-02-11T15:02:38.554Z,151337.97
2024-02-11T15:04:40.272Z,151368.31
2024-02-11T15:06:41.878Z,151389.78
2024-02-11T15:08:44.652Z,151396.13
2024-02-11T15:10:46.448Z,151382.19
2024-02-11T15:12:48.042Z,151434.00
2024-02-11T15:14:49.569Z,151367.03
2024-02-11T15:16:51.442Z,151455.47
2024-02-11T15:18:53.127Z,151436.53
2024-02-11T15:20:54.801Z,151393.59
2024-02-11T15:22:56.487Z,151427.66
2024-02-11T15:24:58.193Z,151483.25
2024-02-11T15:26:59.771Z,151420.06
2024-02-11T15:29:01.551Z,151488.31
2024-02-11T15:31:03.398Z,151478.22
2024-02-11T15:33:06.416Z,151487.03
2024-02-11T15:35:08.292Z,151498.44
2024-02-11T15:37:10.147Z,151425.13
2024-02-11T15:39:11.784Z,151372.09
2024-02-11T15:41:13.615Z,151346.84
2024-02-11T15:43:15.316Z,151402.41
2024-02-11T15:45:16.962Z,151351.91
2024-02-11T15:47:18.793Z,151407.47
2024-02-11T15:49:20.496Z,151427.66
2024-02-11T15:51:22.034Z,151446.63
2024-02-11T15:53:23.643Z,151406.19
2024-02-11T15:55:25.438Z,151426.41
2024-02-11T15:57:27.697Z,151394.84
2024-02-11T15:59:29.850Z,151399.88
2024-02-11T16:01:31.603Z,151475.69
2024-02-11T16:03:33.222Z,151473.16
2024-02-11T16:05:35.094Z,151410.00
2024-02-11T16:07:36.987Z,151445.34
2024-02-11T16:09:38.598Z,151387.25
2024-02-11T16:11:40.372Z,151396.13
2024-02-11T16:13:41.941Z,151437.75
2024-02-11T16:15:43.493Z,151519.88
2024-02-11T16:17:45.300Z,151551.53
2024-02-11T16:19:46.904Z,151470.63
2024-02-11T16:21:48.433Z,151441.53
2024-02-11T16:23:50.148Z,151451.69
2024-02-11T16:25:51.873Z,151475.69
2024-02-11T16:27:53.689Z,151509.78
2024-02-11T16:29:55.531Z,151454.22
2024-02-11T16:31:58.104Z,151500.91
2024-02-11T16:33:59.662Z,151502.19
2024-02-11T16:36:01.892Z,151562.88
2024-02-11T16:38:03.931Z,151426.41
2024-02-11T16:40:06.016Z,151463.03
2024-02-11T16:42:07.720Z,151538.88
2024-02-11T16:44:09.824Z,151502.19
2024-02-11T16:46:11.404Z,151538.88
2024-02-11T16:48:13.188Z,151524.94
2024-02-11T16:50:15.039Z,151523.66
2024-02-11T16:52:17.047Z,151536.34
2024-02-11T16:54:18.583Z,151590.69
2024-02-11T16:56:20.411Z,151575.56
2024-02-11T16:58:21.972Z,151497.16
2024-02-11T17:00:23.589Z,151537.59
2024-02-11T17:02:25.233Z,151561.63
2024-02-11T17:04:26.856Z,151573.00
2024-02-11T17:06:28.529Z,151562.88
2024-02-11T17:08:30.943Z,151507.25
2024-02-11T17:10:32.574Z,151556.59
2024-02-11T17:12:34.297Z,151512.31
2024-02-11T17:14:35.927Z,151490.84
2024-02-11T17:16:37.488Z,151416.31
2024-02-11T17:18:39.438Z,151480.72
2024-02-11T17:20:42.331Z,151440.28
2024-02-11T17:22:45.222Z,151507.25
2024-02-11T17:24:46.968Z,151483.25
2024-02-11T17:26:48.772Z,151540.13
2024-02-11T17:28:50.470Z,151492.09
2024-02-11T17:30:52.028Z,151436.53
2024-02-11T17:32:58.737Z,151502.19
2024-02-11T17:35:01.873Z,151557.88
2024-02-11T17:37:03.556Z,151565.41
2024-02-11T17:39:05.103Z,151554.06
2024-02-11T17:41:06.660Z,151576.81
2024-02-11T17:43:08.444Z,151551.53
2024-02-11T17:45:13.609Z,151527.47
2024-02-11T17:47:15.320Z,151526.19
2024-02-11T17:49:17.175Z,151471.88
2024-02-11T17:51:18.898Z,151546.41
2024-02-11T17:53:22.053Z,151578.09
2024-02-11T17:55:26.626Z,151575.56
2024-02-11T17:57:28.292Z,151566.69
2024-02-11T17:59:30.239Z,151537.59
2024-02-11T18:01:31.878Z,151559.13
2024-02-11T18:05:36.087Z,151514.84
2024-02-11T18:07:37.922Z,151551.53
2024-02-11T18:09:40.483Z,151624.81
2024-02-11T18:11:42.139Z,151603.31
2024-02-11T18:13:43.984Z,151590.69
2024-02-11T18:15:45.588Z,151603.31
2024-02-11T18:17:47.400Z,151552.78
2024-02-11T18:19:49.113Z,151564.16
2024-02-11T18:21:52.917Z,151547.69
2024-02-11T18:23:54.526Z,151523.66
2024-02-11T18:28:03.188Z,151556.59
2024-02-11T18:30:06.064Z,151562.88
2024-02-11T18:32:07.686Z,151631.16
2024-02-11T18:34:09.598Z,151624.81
2024-02-11T18:36:11.566Z,151652.63
2024-02-11T18:38:13.372Z,151650.09
2024-02-11T18:40:15.062Z,151657.72
2024-02-11T18:42:17.546Z,151624.81
2024-02-11T18:44:19.272Z,151691.81
2024-02-11T18:46:20.898Z,151624.81
2024-02-11T18:48:22.509Z,151657.72
2024-02-11T18:50:24.487Z,151640.00
2024-02-11T18:52:26.211Z,151600.84
2024-02-11T18:54:27.745Z,151652.63
2024-02-11T18:56:29.774Z,151636.22
2024-02-11T18:58:33.033Z,151652.63
2024-02-11T19:00:35.146Z,151691.81
2024-02-11T19:02:36.874Z,151672.84
2024-02-11T19:04:39.054Z,151681.72
2024-02-11T19:06:40.619Z,151643.75
2024-02-11T19:08:42.275Z,151608.38
2024-02-11T19:10:45.095Z,151612.19
2024-02-11T19:12:46.681Z,151650.09
2024-02-11T19:14:48.346Z,151684.25
2024-02-11T19:16:50.276Z,151708.25
2024-02-11T19:18:51.879Z,151731.00
2024-02-11T19:20:53.745Z,151728.47
2024-02-11T19:22:55.329Z,151725.94
2024-02-11T19:24:56.875Z,151710.78
2024-02-11T19:26:58.523Z,151709.50
2024-02-11T19:29:00.134Z,151748.69
2024-02-11T19:31:01.763Z,151766.44
2024-02-11T19:33:03.658Z,151748.69
2024-02-11T19:35:05.537Z,151777.81
2024-02-11T19:37:07.144Z,151733.53
2024-02-11T19:39:08.763Z,151701.94
2024-02-11T19:41:11.850Z,151686.75
2024-02-11T19:43:13.383Z,151660.25
2024-02-11T19:45:14.954Z,151672.84
2024-02-11T19:47:16.599Z,151690.56
2024-02-11T19:49:18.185Z,151722.19
2024-02-11T19:51:19.767Z,151717.13
2024-02-11T19:53:31.568Z,151665.25
2024-02-11T19:55:39.525Z,151665.25
2024-02-11T19:57:42.337Z,151642.56
2024-02-11T19:59:44.363Z,151645.03
2024-02-11T20:01:45.956Z,151685.47
2024-02-11T20:03:47.484Z,151714.59
2024-02-11T20:05:49.244Z,151685.47
2024-02-11T20:07:51.017Z,151700.69
2024-02-11T20:09:53.094Z,151634.94
2024-02-11T20:11:54.668Z,151675.41
2024-02-11T20:13:56.225Z,151632.41
2024-02-11T20:15:57.775Z,151629.88
2024-02-11T20:17:59.383Z,151597.03
2024-02-11T20:20:01.009Z,151623.53
2024-02-11T20:22:02.945Z,151609.66
2024-02-11T20:24:05.754Z,151613.47
2024-02-11T20:26:07.423Z,151672.84
2024-02-11T20:28:08.983Z,151669.06
2024-02-11T20:30:11.134Z,151683.00
2024-02-11T20:32:12.745Z,151705.72
2024-02-11T20:34:14.475Z,151664.00
2024-02-11T20:36:16.115Z,151647.56
2024-02-11T20:38:17.772Z,151685.47
2024-02-11T20:40:19.615Z,151591.97
2024-02-11T20:42:21.202Z,151627.34
2024-02-11T20:44:23.367Z,151641.28
2024-02-11T20:46:25.336Z,151575.56
2024-02-11T20:48:27.055Z,151463.03
2024-02-11T20:50:28.646Z,151675.41
2024-02-11T20:52:30.381Z,151622.31
2024-02-11T20:54:32.097Z,151631.16
2024-02-11T20:56:34.066Z,151658.97
2024-02-11T20:58:35.663Z,151698.16
2024-02-11T21:00:37.431Z,151738.59
2024-02-11T21:02:40.322Z,151729.75
2024-02-11T21:04:42.114Z,151715.84
2024-02-11T21:06:43.736Z,151751.25
2024-02-11T21:08:45.295Z,151725.94
2024-02-11T21:10:46.950Z,151715.84
2024-02-11T21:12:48.917Z,151698.16
2024-02-11T21:14:50.588Z,151725.94
2024-02-11T21:16:52.181Z,151719.66
2024-02-11T21:18:54.077Z,151710.78
2024-02-11T21:20:55.675Z,151710.78
2024-02-11T21:22:57.578Z,151653.91
2024-02-11T21:24:59.379Z,151666.53
2024-02-11T21:27:01.094Z,151627.34
2024-02-11T21:29:02.802Z,151640.00
2024-02-11T21:31:09.072Z,151662.78
2024-02-11T21:33:18.079Z,151624.81
2024-02-11T21:35:19.834Z,151622.31
2024-02-11T21:37:21.592Z,151622.31
2024-02-11T21:39:23.390Z,151652.63
2024-02-11T21:41:25.053Z,151661.50
2024-02-11T21:43:26.863Z,151689.28
2024-02-11T21:45:28.563Z,151684.25
2024-02-11T21:49:32.191Z,151686.75
2024-02-11T21:51:33.742Z,151652.63
2024-02-11T21:53:35.384Z,151669.06
2024-02-11T21:55:37.119Z,151610.91
2024-02-11T21:57:42.255Z,151633.69
2024-02-11T21:59:43.794Z,151626.06
2024-02-11T22:01:45.651Z,151622.31
2024-02-11T22:03:47.224Z,151656.44
2024-02-11T22:05:48.836Z,151595.78
2024-02-11T22:07:50.678Z,151616.00
2024-02-11T22:09:52.392Z,151602.09
2024-02-11T22:11:53.946Z,151629.88
2024-02-11T22:13:55.563Z,151603.31
2024-02-11T22:15:57.253Z,151632.41
2024-02-11T22:17:59.114Z,151634.94
2024-02-11T22:20:01.250Z,151623.53
2024-02-11T22:22:02.809Z,151647.56
2024-02-11T22:24:04.454Z,151689.28
2024-02-11T22:26:06.300Z,151661.50
2024-02-11T22:28:07.857Z,151642.56
2024-02-11T22:30:09.683Z,151573.00
2024-02-11T22:32:11.316Z,151600.84
2024-02-11T22:34:13.170Z,151614.72
2024-02-11T22:36:15.987Z,151585.63
2024-02-11T22:38:18.182Z,151573.00
2024-02-11T22:40:20.228Z,151578.09
2024-02-11T22:42:21.954Z,151559.13
2024-02-11T22:44:23.621Z,151586.91
2024-02-11T22:46:25.301Z,151586.91
2024-02-11T22:48:26.893Z,151640.00
2024-02-11T22:50:28.673Z,151624.81
2024-02-11T22:52:30.418Z,151627.34
2024-02-11T22:54:31.945Z,151623.53
2024-02-11T22:56:34.070Z,151604.59
2024-02-11T22:58:35.756Z,151608.38
2024-02-11T23:00:37.433Z,151655.16
2024-02-11T23:02:39.250Z,151657.72
2024-02-11T23:04:40.851Z,151675.41
2024-02-11T23:06:42.564Z,151637.47
2024-02-11T23:08:44.413Z,151564.16
2024-02-11T23:10:46.119Z,151556.59
2024-02-11T23:12:47.809Z,151556.59
2024-02-11T23:14:49.431Z,151561.63
2024-02-11T23:16:51.126Z,151565.41
2024-02-11T23:18:52.925Z,151516.13